Mildmay, Canada
Current Conditions -  °F | °C
As of 10:00 PM on Monday 20 Oct 2014 (Local Time) from CYVV Reporting Station
Light Rain Light Rain  
Wind Chill: 48°   Ceiling: 600
Heat Index: 48°   Visibility: 4mi
Dew Point: 48°   Wind: 2mph
Humidity: 100%   Direction: 280°W
Pressure: 29.79"   Gusts: NA
Location:  44.03°N, 81.12°W
Report Text: CYVV 210200Z 28002KT 4SM -RA BR BKN006 OVC015 09/09 A2979 RMKSF5SF3 SLP092
Loading
Personal Weather Stations






























Interactive Weather Map
Tropical Storm Tracking
New forecast layout! Learn more

10-Day Weather Forecast

Advertisements
Track Severe Weather on mobile